sensor_id;sensor_type;location;lat;lon;timestamp;P1;durP1;ratioP1;P2;durP2;ratioP2
1925;SDS011;964;42.606;23.588;2023-09-30T00:00:02;6.13;;;5.43;;
1925;SDS011;964;42.606;23.588;2023-09-30T00:02:30;7.70;;;6.53;;
1925;SDS011;964;42.606;23.588;2023-09-30T00:04:57;8.43;;;5.67;;
1925;SDS011;964;42.606;23.588;2023-09-30T00:07:24;7.30;;;5.60;;
1925;SDS011;964;42.606;23.588;2023-09-30T00:09:51;8.23;;;5.87;;
1925;SDS011;964;42.606;23.588;2023-09-30T00:12:19;9.90;;;6.30;;
1925;SDS011;964;42.606;23.588;2023-09-30T00:14:46;9.00;;;5.20;;
1925;SDS011;964;42.606;23.588;2023-09-30T00:17:13;8.90;;;6.10;;
1925;SDS011;964;42.606;23.588;2023-09-30T00:19:40;11.23;;;6.60;;
1925;SDS011;964;42.606;23.588;2023-09-30T00:22:06;10.83;;;6.27;;
1925;SDS011;964;42.606;23.588;2023-09-30T00:24:34;9.00;;;6.40;;
1925;SDS011;964;42.606;23.588;2023-09-30T00:27:01;7.70;;;6.60;;
1925;SDS011;964;42.606;23.588;2023-09-30T00:29:29;10.17;;;6.47;;
1925;SDS011;964;42.606;23.588;2023-09-30T00:31:55;7.40;;;6.23;;
1925;SDS011;964;42.606;23.588;2023-09-30T00:34:22;14.43;;;6.93;;
1925;SDS011;964;42.606;23.588;2023-09-30T00:36:49;13.97;;;6.60;;
1925;SDS011;964;42.606;23.588;2023-09-30T00:39:15;10.10;;;6.53;;
1925;SDS011;964;42.606;23.588;2023-09-30T00:41:42;10.40;;;6.40;;
1925;SDS011;964;42.606;23.588;2023-09-30T00:44:09;10.87;;;5.93;;
1925;SDS011;964;42.606;23.588;2023-09-30T00:46:37;9.77;;;7.00;;
1925;SDS011;964;42.606;23.588;2023-09-30T00:49:06;7.40;;;6.20;;
1925;SDS011;964;42.606;23.588;2023-09-30T00:51:34;9.23;;;6.10;;
1925;SDS011;964;42.606;23.588;2023-09-30T00:54:02;11.20;;;5.93;;
1925;SDS011;964;42.606;23.588;2023-09-30T00:56:30;9.70;;;5.90;;
1925;SDS011;964;42.606;23.588;2023-09-30T00:58:58;15.07;;;6.87;;
1925;SDS011;964;42.606;23.588;2023-09-30T01:01:25;8.33;;;6.10;;
1925;SDS011;964;42.606;23.588;2023-09-30T01:03:53;9.63;;;5.93;;
1925;SDS011;964;42.606;23.588;2023-09-30T01:06:20;10.93;;;6.30;;
1925;SDS011;964;42.606;23.588;2023-09-30T01:08:47;7.90;;;5.70;;
1925;SDS011;964;42.606;23.588;2023-09-30T01:11:13;34.33;;;8.80;;
1925;SDS011;964;42.606;23.588;2023-09-30T01:13:40;19.93;;;8.20;;
1925;SDS011;964;42.606;23.588;2023-09-30T01:16:09;24.00;;;7.35;;
1925;SDS011;964;42.606;23.588;2023-09-30T01:18:37;25.63;;;9.33;;
1925;SDS011;964;42.606;23.588;2023-09-30T01:21:06;11.50;;;7.27;;
1925;SDS011;964;42.606;23.588;2023-09-30T01:23:34;13.03;;;6.97;;
1925;SDS011;964;42.606;23.588;2023-09-30T01:26:02;11.00;;;7.30;;
1925;SDS011;964;42.606;23.588;2023-09-30T01:28:30;8.63;;;6.10;;
1925;SDS011;964;42.606;23.588;2023-09-30T01:30:56;13.43;;;7.20;;
1925;SDS011;964;42.606;23.588;2023-09-30T01:33:23;8.90;;;6.50;;
1925;SDS011;964;42.606;23.588;2023-09-30T01:35:50;12.50;;;7.10;;
1925;SDS011;964;42.606;23.588;2023-09-30T01:38:17;14.63;;;6.90;;
1925;SDS011;964;42.606;23.588;2023-09-30T01:40:45;8.90;;;7.10;;
1925;SDS011;964;42.606;23.588;2023-09-30T01:43:12;11.80;;;7.30;;
1925;SDS011;964;42.606;23.588;2023-09-30T01:45:38;11.80;;;7.20;;
1925;SDS011;964;42.606;23.588;2023-09-30T01:48:05;12.43;;;7.43;;
1925;SDS011;964;42.606;23.588;2023-09-30T01:50:32;10.60;;;6.47;;
1925;SDS011;964;42.606;23.588;2023-09-30T01:52:59;7.67;;;6.20;;
1925;SDS011;964;42.606;23.588;2023-09-30T01:55:25;10.70;;;8.30;;
1925;SDS011;964;42.606;23.588;2023-09-30T01:57:53;9.40;;;7.20;;
1925;SDS011;964;42.606;23.588;2023-09-30T02:00:20;12.47;;;7.10;;
1925;SDS011;964;42.606;23.588;2023-09-30T02:02:46;11.77;;;7.67;;
1925;SDS011;964;42.606;23.588;2023-09-30T02:05:13;11.37;;;7.20;;
1925;SDS011;964;42.606;23.588;2023-09-30T02:07:40;14.40;;;7.00;;
1925;SDS011;964;42.606;23.588;2023-09-30T02:10:08;11.10;;;7.63;;
1925;SDS011;964;42.606;23.588;2023-09-30T02:12:35;7.90;;;6.20;;
1925;SDS011;964;42.606;23.588;2023-09-30T02:15:04;9.70;;;7.37;;
1925;SDS011;964;42.606;23.588;2023-09-30T02:17:32;7.60;;;6.70;;
1925;SDS011;964;42.606;23.588;2023-09-30T02:19:58;9.23;;;7.10;;
1925;SDS011;964;42.606;23.588;2023-09-30T02:22:26;9.20;;;7.00;;
1925;SDS011;964;42.606;23.588;2023-09-30T02:24:53;10.90;;;7.23;;
1925;SDS011;964;42.606;23.588;2023-09-30T02:27:20;14.03;;;7.23;;
1925;SDS011;964;42.606;23.588;2023-09-30T02:29:47;9.37;;;6.63;;
1925;SDS011;964;42.606;23.588;2023-09-30T02:32:15;9.23;;;7.20;;
1925;SDS011;964;42.606;23.588;2023-09-30T02:34:43;9.83;;;8.07;;
1925;SDS011;964;42.606;23.588;2023-09-30T02:37:09;15.23;;;7.73;;
1925;SDS011;964;42.606;23.588;2023-09-30T02:39:36;10.33;;;7.50;;
1925;SDS011;964;42.606;23.588;2023-09-30T02:42:03;11.00;;;7.20;;
1925;SDS011;964;42.606;23.588;2023-09-30T02:44:30;15.00;;;8.20;;
1925;SDS011;964;42.606;23.588;2023-09-30T02:46:56;10.30;;;7.53;;
1925;SDS011;964;42.606;23.588;2023-09-30T02:49:24;13.00;;;7.83;;
1925;SDS011;964;42.606;23.588;2023-09-30T02:51:51;13.43;;;7.00;;
1925;SDS011;964;42.606;23.588;2023-09-30T02:54:18;12.70;;;6.97;;
1925;SDS011;964;42.606;23.588;2023-09-30T02:56:44;9.00;;;7.20;;
1925;SDS011;964;42.606;23.588;2023-09-30T02:59:12;10.40;;;6.87;;
1925;SDS011;964;42.606;23.588;2023-09-30T03:01:40;10.37;;;6.40;;
1925;SDS011;964;42.606;23.588;2023-09-30T03:04:06;18.43;;;8.30;;
1925;SDS011;964;42.606;23.588;2023-09-30T03:06:36;11.03;;;7.70;;
1925;SDS011;964;42.606;23.588;2023-09-30T03:09:03;11.83;;;7.57;;
1925;SDS011;964;42.606;23.588;2023-09-30T03:11:30;10.23;;;7.40;;
1925;SDS011;964;42.606;23.588;2023-09-30T03:13:59;17.17;;;8.07;;
1925;SDS011;964;42.606;23.588;2023-09-30T03:16:26;9.67;;;6.90;;
1925;SDS011;964;42.606;23.588;2023-09-30T03:18:52;10.53;;;6.77;;
1925;SDS011;964;42.606;23.588;2023-09-30T03:21:20;11.83;;;7.30;;
1925;SDS011;964;42.606;23.588;2023-09-30T03:23:49;14.60;;;7.63;;
1925;SDS011;964;42.606;23.588;2023-09-30T03:26:15;11.53;;;7.43;;
1925;SDS011;964;42.606;23.588;2023-09-30T03:28:42;12.00;;;7.10;;
1925;SDS011;964;42.606;23.588;2023-09-30T03:31:09;13.03;;;7.73;;
1925;SDS011;964;42.606;23.588;2023-09-30T03:33:36;8.60;;;6.97;;
1925;SDS011;964;42.606;23.588;2023-09-30T03:36:04;8.87;;;6.90;;
1925;SDS011;964;42.606;23.588;2023-09-30T03:38:34;12.50;;;6.60;;
1925;SDS011;964;42.606;23.588;2023-09-30T03:41:02;12.20;;;6.80;;
1925;SDS011;964;42.606;23.588;2023-09-30T03:43:33;13.20;;;7.90;;
1925;SDS011;964;42.606;23.588;2023-09-30T03:46:02;11.13;;;7.70;;
1925;SDS011;964;42.606;23.588;2023-09-30T03:48:28;11.03;;;7.30;;
1925;SDS011;964;42.606;23.588;2023-09-30T03:50:55;10.27;;;7.13;;
1925;SDS011;964;42.606;23.588;2023-09-30T03:53:21;11.03;;;6.60;;
1925;SDS011;964;42.606;23.588;2023-09-30T03:55:51;10.20;;;7.20;;
1925;SDS011;964;42.606;23.588;2023-09-30T03:58:19;11.70;;;6.90;;
1925;SDS011;964;42.606;23.588;2023-09-30T04:00:46;10.83;;;7.10;;
1925;SDS011;964;42.606;23.588;2023-09-30T04:03:14;8.50;;;7.13;;
1925;SDS011;964;42.606;23.588;2023-09-30T04:05:41;12.57;;;7.13;;
1925;SDS011;964;42.606;23.588;2023-09-30T04:08:07;12.37;;;7.97;;
1925;SDS011;964;42.606;23.588;2023-09-30T04:10:36;17.67;;;7.90;;
1925;SDS011;964;42.606;23.588;2023-09-30T04:13:03;12.40;;;7.30;;
1925;SDS011;964;42.606;23.588;2023-09-30T04:15:31;11.93;;;6.57;;
1925;SDS011;964;42.606;23.588;2023-09-30T04:17:57;13.70;;;6.87;;
1925;SDS011;964;42.606;23.588;2023-09-30T04:20:24;12.83;;;8.20;;
1925;SDS011;964;42.606;23.588;2023-09-30T04:22:52;12.17;;;7.40;;
1925;SDS011;964;42.606;23.588;2023-09-30T04:25:22;13.80;;;7.30;;
1925;SDS011;964;42.606;23.588;2023-09-30T04:27:50;11.80;;;7.37;;
1925;SDS011;964;42.606;23.588;2023-09-30T04:30:16;16.53;;;8.10;;
1925;SDS011;964;42.606;23.588;2023-09-30T04:32:45;14.63;;;8.00;;
1925;SDS011;964;42.606;23.588;2023-09-30T04:35:12;27.50;;;8.37;;
1925;SDS011;964;42.606;23.588;2023-09-30T04:37:38;8.60;;;6.73;;
1925;SDS011;964;42.606;23.588;2023-09-30T04:40:06;17.33;;;7.67;;
1925;SDS011;964;42.606;23.588;2023-09-30T04:42:40;20.40;;;7.67;;
1925;SDS011;964;42.606;23.588;2023-09-30T04:45:08;13.03;;;7.10;;
1925;SDS011;964;42.606;23.588;2023-09-30T04:47:35;22.80;;;7.80;;
1925;SDS011;964;42.606;23.588;2023-09-30T04:50:04;10.80;;;7.87;;
1925;SDS011;964;42.606;23.588;2023-09-30T04:52:32;9.73;;;7.20;;
1925;SDS011;964;42.606;23.588;2023-09-30T04:54:59;13.30;;;7.23;;
1925;SDS011;964;42.606;23.588;2023-09-30T04:57:26;12.53;;;7.33;;
1925;SDS011;964;42.606;23.588;2023-09-30T04:59:53;13.40;;;7.80;;
1925;SDS011;964;42.606;23.588;2023-09-30T05:02:19;8.27;;;6.67;;
1925;SDS011;964;42.606;23.588;2023-09-30T05:04:46;37.60;;;8.83;;
1925;SDS011;964;42.606;23.588;2023-09-30T05:07:14;14.10;;;7.63;;
1925;SDS011;964;42.606;23.588;2023-09-30T05:09:41;15.47;;;6.40;;
1925;SDS011;964;42.606;23.588;2023-09-30T05:12:08;15.57;;;7.40;;
1925;SDS011;964;42.606;23.588;2023-09-30T05:14:36;11.63;;;7.23;;
1925;SDS011;964;42.606;23.588;2023-09-30T05:17:03;10.60;;;6.97;;
1925;SDS011;964;42.606;23.588;2023-09-30T05:19:30;12.73;;;6.97;;
1925;SDS011;964;42.606;23.588;2023-09-30T05:21:57;15.30;;;7.70;;
1925;SDS011;964;42.606;23.588;2023-09-30T05:24:27;14.70;;;7.13;;
1925;SDS011;964;42.606;23.588;2023-09-30T05:26:54;16.73;;;7.53;;
1925;SDS011;964;42.606;23.588;2023-09-30T05:29:21;8.80;;;6.97;;
1925;SDS011;964;42.606;23.588;2023-09-30T05:31:48;14.93;;;8.20;;
1925;SDS011;964;42.606;23.588;2023-09-30T05:34:14;12.23;;;7.57;;
1925;SDS011;964;42.606;23.588;2023-09-30T05:36:41;16.67;;;6.60;;
1925;SDS011;964;42.606;23.588;2023-09-30T05:39:08;14.80;;;8.23;;
1925;SDS011;964;42.606;23.588;2023-09-30T05:41:38;13.40;;;7.97;;
1925;SDS011;964;42.606;23.588;2023-09-30T05:44:05;7.90;;;7.20;;
1925;SDS011;964;42.606;23.588;2023-09-30T05:46:33;14.70;;;8.03;;
1925;SDS011;964;42.606;23.588;2023-09-30T05:48:59;11.87;;;7.10;;
1925;SDS011;964;42.606;23.588;2023-09-30T05:51:27;11.30;;;6.67;;
1925;SDS011;964;42.606;23.588;2023-09-30T05:53:53;11.97;;;7.13;;
1925;SDS011;964;42.606;23.588;2023-09-30T05:56:20;12.43;;;6.63;;
1925;SDS011;964;42.606;23.588;2023-09-30T05:58:48;18.00;;;7.73;;
1925;SDS011;964;42.606;23.588;2023-09-30T06:01:14;11.73;;;7.83;;
1925;SDS011;964;42.606;23.588;2023-09-30T06:03:44;8.70;;;6.80;;
1925;SDS011;964;42.606;23.588;2023-09-30T06:06:11;9.67;;;6.90;;
1925;SDS011;964;42.606;23.588;2023-09-30T06:08:39;13.13;;;7.23;;
1925;SDS011;964;42.606;23.588;2023-09-30T06:11:05;9.90;;;8.20;;
1925;SDS011;964;42.606;23.588;2023-09-30T06:13:32;10.67;;;8.03;;
1925;SDS011;964;42.606;23.588;2023-09-30T06:16:00;11.03;;;7.17;;
1925;SDS011;964;42.606;23.588;2023-09-30T06:18:27;10.30;;;6.80;;
1925;SDS011;964;42.606;23.588;2023-09-30T06:20:54;10.70;;;7.20;;
1925;SDS011;964;42.606;23.588;2023-09-30T06:23:20;18.60;;;7.93;;
1925;SDS011;964;42.606;23.588;2023-09-30T06:25:47;13.00;;;7.03;;
1925;SDS011;964;42.606;23.588;2023-09-30T06:28:13;13.97;;;6.77;;
1925;SDS011;964;42.606;23.588;2023-09-30T06:30:40;11.20;;;7.70;;
1925;SDS011;964;42.606;23.588;2023-09-30T06:33:11;17.03;;;8.10;;
1925;SDS011;964;42.606;23.588;2023-09-30T06:35:40;10.93;;;7.90;;
1925;SDS011;964;42.606;23.588;2023-09-30T06:38:15;10.80;;;7.90;;
1925;SDS011;964;42.606;23.588;2023-09-30T06:40:42;12.17;;;7.50;;
1925;SDS011;964;42.606;23.588;2023-09-30T06:43:10;9.23;;;7.33;;
1925;SDS011;964;42.606;23.588;2023-09-30T06:45:36;10.73;;;7.60;;
1925;SDS011;964;42.606;23.588;2023-09-30T06:48:06;15.30;;;7.80;;
1925;SDS011;964;42.606;23.588;2023-09-30T06:50:39;10.90;;;7.40;;
1925;SDS011;964;42.606;23.588;2023-09-30T06:53:06;9.13;;;6.97;;
1925;SDS011;964;42.606;23.588;2023-09-30T06:55:34;10.83;;;7.80;;
1925;SDS011;964;42.606;23.588;2023-09-30T06:58:03;8.40;;;7.50;;
1925;SDS011;964;42.606;23.588;2023-09-30T07:00:32;10.43;;;7.17;;
1925;SDS011;964;42.606;23.588;2023-09-30T07:02:59;12.60;;;6.80;;
1925;SDS011;964;42.606;23.588;2023-09-30T07:05:26;11.63;;;7.53;;
1925;SDS011;964;42.606;23.588;2023-09-30T07:07:54;12.67;;;7.97;;
1925;SDS011;964;42.606;23.588;2023-09-30T07:10:21;11.90;;;6.20;;
1925;SDS011;964;42.606;23.588;2023-09-30T07:12:48;10.63;;;6.73;;
1925;SDS011;964;42.606;23.588;2023-09-30T07:15:14;8.00;;;6.43;;
1925;SDS011;964;42.606;23.588;2023-09-30T07:17:41;7.80;;;5.60;;
1925;SDS011;964;42.606;23.588;2023-09-30T07:20:08;8.10;;;6.63;;
1925;SDS011;964;42.606;23.588;2023-09-30T07:22:35;8.97;;;6.60;;
1925;SDS011;964;42.606;23.588;2023-09-30T07:25:04;11.93;;;6.10;;
1925;SDS011;964;42.606;23.588;2023-09-30T07:27:31;7.30;;;5.73;;
1925;SDS011;964;42.606;23.588;2023-09-30T07:29:57;7.53;;;5.83;;
1925;SDS011;964;42.606;23.588;2023-09-30T07:32:24;9.50;;;6.43;;
1925;SDS011;964;42.606;23.588;2023-09-30T07:34:51;10.23;;;5.67;;
1925;SDS011;964;42.606;23.588;2023-09-30T07:37:18;7.70;;;5.40;;
1925;SDS011;964;42.606;23.588;2023-09-30T07:39:45;6.73;;;5.80;;
1925;SDS011;964;42.606;23.588;2023-09-30T07:42:13;7.27;;;5.90;;
1925;SDS011;964;42.606;23.588;2023-09-30T07:44:42;6.53;;;5.83;;
1925;SDS011;964;42.606;23.588;2023-09-30T07:47:08;6.97;;;5.37;;
1925;SDS011;964;42.606;23.588;2023-09-30T07:49:35;5.73;;;5.10;;
1925;SDS011;964;42.606;23.588;2023-09-30T07:52:01;8.60;;;5.90;;
1925;SDS011;964;42.606;23.588;2023-09-30T07:54:29;7.83;;;6.73;;
1925;SDS011;964;42.606;23.588;2023-09-30T07:56:55;9.33;;;6.03;;
1925;SDS011;964;42.606;23.588;2023-09-30T07:59:24;12.00;;;6.63;;
1925;SDS011;964;42.606;23.588;2023-09-30T08:01:51;12.53;;;5.40;;
1925;SDS011;964;42.606;23.588;2023-09-30T08:04:18;6.70;;;5.80;;
1925;SDS011;964;42.606;23.588;2023-09-30T08:06:45;11.77;;;6.20;;
1925;SDS011;964;42.606;23.588;2023-09-30T08:09:11;5.73;;;5.20;;
1925;SDS011;964;42.606;23.588;2023-09-30T08:11:39;8.47;;;5.57;;
1925;SDS011;964;42.606;23.588;2023-09-30T08:14:05;8.97;;;5.67;;
1925;SDS011;964;42.606;23.588;2023-09-30T08:16:35;13.87;;;5.50;;
1925;SDS011;964;42.606;23.588;2023-09-30T08:19:02;8.67;;;5.80;;
1925;SDS011;964;42.606;23.588;2023-09-30T08:21:29;11.30;;;5.90;;
1925;SDS011;964;42.606;23.588;2023-09-30T08:23:56;9.23;;;5.83;;
1925;SDS011;964;42.606;23.588;2023-09-30T08:26:23;8.27;;;5.37;;
1925;SDS011;964;42.606;23.588;2023-09-30T08:28:49;8.73;;;5.67;;
1925;SDS011;964;42.606;23.588;2023-09-30T08:31:16;5.80;;;5.30;;
1925;SDS011;964;42.606;23.588;2023-09-30T08:33:44;9.67;;;5.93;;
1925;SDS011;964;42.606;23.588;2023-09-30T08:36:11;9.83;;;6.60;;
1925;SDS011;964;42.606;23.588;2023-09-30T08:38:38;8.07;;;6.40;;
1925;SDS011;964;42.606;23.588;2023-09-30T08:41:06;9.27;;;5.50;;
1925;SDS011;964;42.606;23.588;2023-09-30T08:43:34;12.40;;;6.90;;
1925;SDS011;964;42.606;23.588;2023-09-30T08:46:04;13.80;;;7.27;;
1925;SDS011;964;42.606;23.588;2023-09-30T08:48:32;8.43;;;7.00;;
1925;SDS011;964;42.606;23.588;2023-09-30T08:51:01;8.63;;;7.63;;
1925;SDS011;964;42.606;23.588;2023-09-30T08:53:28;12.03;;;7.77;;
1925;SDS011;964;42.606;23.588;2023-09-30T08:55:56;8.50;;;6.73;;
1925;SDS011;964;42.606;23.588;2023-09-30T08:58:26;9.40;;;7.57;;
1925;SDS011;964;42.606;23.588;2023-09-30T09:00:54;10.63;;;7.33;;
1925;SDS011;964;42.606;23.588;2023-09-30T09:03:21;10.07;;;7.03;;
1925;SDS011;964;42.606;23.588;2023-09-30T09:05:53;14.07;;;7.67;;
1925;SDS011;964;42.606;23.588;2023-09-30T09:08:22;8.40;;;6.95;;
1925;SDS011;964;42.606;23.588;2023-09-30T09:10:53;8.03;;;7.00;;
1925;SDS011;964;42.606;23.588;2023-09-30T09:13:22;9.85;;;6.82;;
1925;SDS011;964;42.606;23.588;2023-09-30T09:15:49;8.70;;;7.07;;
1925;SDS011;964;42.606;23.588;2023-09-30T09:18:30;7.38;;;6.35;;
1925;SDS011;964;42.606;23.588;2023-09-30T09:21:08;10.20;;;6.72;;
1925;SDS011;964;42.606;23.588;2023-09-30T09:23:41;7.15;;;6.03;;
1925;SDS011;964;42.606;23.588;2023-09-30T09:26:09;12.75;;;6.82;;
1925;SDS011;964;42.606;23.588;2023-09-30T09:28:37;11.57;;;7.38;;
1925;SDS011;964;42.606;23.588;2023-09-30T09:31:23;9.60;;;7.15;;
1925;SDS011;964;42.606;23.588;2023-09-30T09:33:51;7.97;;;5.80;;
1925;SDS011;964;42.606;23.588;2023-09-30T09:36:18;10.48;;;7.05;;
1925;SDS011;964;42.606;23.588;2023-09-30T09:38:47;7.78;;;5.80;;
1925;SDS011;964;42.606;23.588;2023-09-30T09:41:18;7.50;;;5.60;;
1925;SDS011;964;42.606;23.588;2023-09-30T09:43:45;8.30;;;5.65;;
1925;SDS011;964;42.606;23.588;2023-09-30T09:46:16;6.07;;;5.47;;
1925;SDS011;964;42.606;23.588;2023-09-30T09:48:44;15.23;;;6.68;;
1925;SDS011;964;42.606;23.588;2023-09-30T09:51:12;6.95;;;4.97;;
1925;SDS011;964;42.606;23.588;2023-09-30T09:53:40;7.47;;;5.78;;
1925;SDS011;964;42.606;23.588;2023-09-30T09:56:10;5.28;;;4.85;;
1925;SDS011;964;42.606;23.588;2023-09-30T09:58:39;6.55;;;4.85;;
1925;SDS011;964;42.606;23.588;2023-09-30T10:01:07;6.18;;;4.85;;
1925;SDS011;964;42.606;23.588;2023-09-30T10:03:35;6.10;;;5.50;;
1925;SDS011;964;42.606;23.588;2023-09-30T10:06:02;6.40;;;4.93;;
1925;SDS011;964;42.606;23.588;2023-09-30T10:08:31;7.57;;;5.03;;
1925;SDS011;964;42.606;23.588;2023-09-30T10:11:01;6.32;;;5.10;;
1925;SDS011;964;42.606;23.588;2023-09-30T10:19:13;6.90;;;4.07;;
1925;SDS011;964;42.606;23.588;2023-09-30T10:24:41;5.20;;;3.50;;
1925;SDS011;964;42.606;23.588;2023-09-30T10:29:58;4.97;;;3.70;;
1925;SDS011;964;42.606;23.588;2023-09-30T10:41:08;5.27;;;3.80;;
1925;SDS011;964;42.606;23.588;2023-09-30T10:43:37;10.00;;;4.37;;
1925;SDS011;964;42.606;23.588;2023-09-30T10:51:56;5.57;;;3.77;;
1925;SDS011;964;42.606;23.588;2023-09-30T10:54:25;5.20;;;4.40;;
1925;SDS011;964;42.606;23.588;2023-09-30T10:56:53;8.03;;;4.53;;
1925;SDS011;964;42.606;23.588;2023-09-30T10:59:20;5.60;;;4.33;;
1925;SDS011;964;42.606;23.588;2023-09-30T11:01:49;6.90;;;5.00;;
1925;SDS011;964;42.606;23.588;2023-09-30T11:04:18;10.33;;;4.63;;
1925;SDS011;964;42.606;23.588;2023-09-30T11:06:45;14.27;;;4.90;;
1925;SDS011;964;42.606;23.588;2023-09-30T11:09:15;10.27;;;4.90;;
1925;SDS011;964;42.606;23.588;2023-09-30T11:11:43;7.40;;;5.40;;
1925;SDS011;964;42.606;23.588;2023-09-30T11:14:20;5.00;;;4.50;;
1925;SDS011;964;42.606;23.588;2023-09-30T11:16:48;8.50;;;5.40;;
1925;SDS011;964;42.606;23.588;2023-09-30T11:19:16;5.53;;;5.03;;
1925;SDS011;964;42.606;23.588;2023-09-30T11:21:45;6.23;;;5.37;;
1925;SDS011;964;42.606;23.588;2023-09-30T11:24:14;7.27;;;5.60;;
1925;SDS011;964;42.606;23.588;2023-09-30T11:26:41;6.10;;;5.30;;
1925;SDS011;964;42.606;23.588;2023-09-30T11:29:10;8.53;;;5.30;;
1925;SDS011;964;42.606;23.588;2023-09-30T11:31:38;8.40;;;5.60;;
1925;SDS011;964;42.606;23.588;2023-09-30T11:34:07;7.87;;;5.73;;
1925;SDS011;964;42.606;23.588;2023-09-30T11:36:35;7.20;;;5.40;;
1925;SDS011;964;42.606;23.588;2023-09-30T11:39:03;6.70;;;5.63;;
1925;SDS011;964;42.606;23.588;2023-09-30T11:41:33;5.97;;;5.37;;
1925;SDS011;964;42.606;23.588;2023-09-30T11:44:03;5.80;;;4.97;;
1925;SDS011;964;42.606;23.588;2023-09-30T11:46:33;10.83;;;5.60;;
1925;SDS011;964;42.606;23.588;2023-09-30T11:49:23;7.30;;;5.30;;
1925;SDS011;964;42.606;23.588;2023-09-30T11:51:51;6.00;;;5.07;;
1925;SDS011;964;42.606;23.588;2023-09-30T11:54:18;7.03;;;5.77;;
1925;SDS011;964;42.606;23.588;2023-09-30T11:56:47;5.97;;;5.37;;
1925;SDS011;964;42.606;23.588;2023-09-30T11:59:13;10.55;;;5.68;;
1925;SDS011;964;42.606;23.588;2023-09-30T12:01:40;6.03;;;5.32;;
1925;SDS011;964;42.606;23.588;2023-09-30T12:04:08;7.18;;;5.45;;
1925;SDS011;964;42.606;23.588;2023-09-30T12:06:37;5.70;;;5.15;;
1925;SDS011;964;42.606;23.588;2023-09-30T12:09:04;9.40;;;6.05;;
1925;SDS011;964;42.606;23.588;2023-09-30T12:11:33;5.70;;;5.10;;
1925;SDS011;964;42.606;23.588;2023-09-30T12:14:00;6.72;;;6.03;;
1925;SDS011;964;42.606;23.588;2023-09-30T12:16:26;7.32;;;5.63;;
1925;SDS011;964;42.606;23.588;2023-09-30T12:18:53;8.70;;;5.82;;
1925;SDS011;964;42.606;23.588;2023-09-30T12:21:20;6.57;;;5.22;;
1925;SDS011;964;42.606;23.588;2023-09-30T12:23:49;9.90;;;5.60;;
1925;SDS011;964;42.606;23.588;2023-09-30T12:26:16;8.70;;;5.72;;
1925;SDS011;964;42.606;23.588;2023-09-30T12:28:45;11.55;;;5.68;;
1925;SDS011;964;42.606;23.588;2023-09-30T12:31:12;6.72;;;4.97;;
1925;SDS011;964;42.606;23.588;2023-09-30T12:33:38;8.75;;;4.97;;
1925;SDS011;964;42.606;23.588;2023-09-30T12:36:05;5.22;;;4.72;;
1925;SDS011;964;42.606;23.588;2023-09-30T12:38:32;6.40;;;5.65;;
1925;SDS011;964;42.606;23.588;2023-09-30T12:41:00;5.28;;;4.80;;
1925;SDS011;964;42.606;23.588;2023-09-30T12:43:28;8.40;;;4.95;;
1925;SDS011;964;42.606;23.588;2023-09-30T12:45:55;5.30;;;4.80;;
1925;SDS011;964;42.606;23.588;2023-09-30T12:48:21;10.45;;;5.68;;
1925;SDS011;964;42.606;23.588;2023-09-30T12:50:48;7.35;;;4.70;;
1925;SDS011;964;42.606;23.588;2023-09-30T12:53:15;6.00;;;5.35;;
1925;SDS011;964;42.606;23.588;2023-09-30T12:55:41;5.53;;;4.93;;
1925;SDS011;964;42.606;23.588;2023-09-30T12:58:10;6.90;;;4.53;;
1925;SDS011;964;42.606;23.588;2023-09-30T13:00:37;5.60;;;5.10;;
1925;SDS011;964;42.606;23.588;2023-09-30T13:03:04;9.27;;;4.47;;
1925;SDS011;964;42.606;23.588;2023-09-30T13:05:32;9.18;;;4.15;;
1925;SDS011;964;42.606;23.588;2023-09-30T13:07:59;5.88;;;4.75;;
1925;SDS011;964;42.606;23.588;2023-09-30T13:10:26;6.25;;;4.35;;
1925;SDS011;964;42.606;23.588;2023-09-30T13:12:55;7.40;;;4.50;;
1925;SDS011;964;42.606;23.588;2023-09-30T13:15:23;8.15;;;4.38;;
1925;SDS011;964;42.606;23.588;2023-09-30T13:17:51;6.82;;;4.93;;
1925;SDS011;964;42.606;23.588;2023-09-30T13:20:17;4.82;;;4.35;;
1925;SDS011;964;42.606;23.588;2023-09-30T13:22:44;4.50;;;4.10;;
1925;SDS011;964;42.606;23.588;2023-09-30T13:25:12;5.35;;;4.20;;
1925;SDS011;964;42.606;23.588;2023-09-30T13:27:40;4.80;;;4.30;;
1925;SDS011;964;42.606;23.588;2023-09-30T13:30:08;5.45;;;4.03;;
1925;SDS011;964;42.606;23.588;2023-09-30T13:32:37;7.28;;;4.80;;
1925;SDS011;964;42.606;23.588;2023-09-30T13:35:04;6.63;;;5.72;;
1925;SDS011;964;42.606;23.588;2023-09-30T13:37:32;17.90;;;15.70;;
1925;SDS011;964;42.606;23.588;2023-09-30T13:39:59;8.80;;;8.05;;
1925;SDS011;964;42.606;23.588;2023-09-30T13:42:27;8.02;;;4.20;;
1925;SDS011;964;42.606;23.588;2023-09-30T13:44:53;13.43;;;5.05;;
1925;SDS011;964;42.606;23.588;2023-09-30T13:47:22;4.53;;;4.03;;
1925;SDS011;964;42.606;23.588;2023-09-30T13:49:50;6.05;;;4.75;;
1925;SDS011;964;42.606;23.588;2023-09-30T13:52:17;7.85;;;4.53;;
1925;SDS011;964;42.606;23.588;2023-09-30T13:54:44;5.22;;;4.40;;
1925;SDS011;964;42.606;23.588;2023-09-30T13:57:11;7.68;;;4.47;;
1925;SDS011;964;42.606;23.588;2023-09-30T13:59:39;5.28;;;4.78;;
1925;SDS011;964;42.606;23.588;2023-09-30T14:02:07;9.82;;;4.85;;
1925;SDS011;964;42.606;23.588;2023-09-30T14:04:33;8.05;;;4.78;;
1925;SDS011;964;42.606;23.588;2023-09-30T14:07:02;5.32;;;4.82;;
1925;SDS011;964;42.606;23.588;2023-09-30T14:09:30;8.73;;;4.80;;
1925;SDS011;964;42.606;23.588;2023-09-30T14:11:57;9.17;;;4.83;;
1925;SDS011;964;42.606;23.588;2023-09-30T14:14:25;9.20;;;4.80;;
1925;SDS011;964;42.606;23.588;2023-09-30T14:16:51;5.60;;;4.60;;
1925;SDS011;964;42.606;23.588;2023-09-30T14:19:18;7.53;;;4.43;;
1925;SDS011;964;42.606;23.588;2023-09-30T14:21:44;6.83;;;4.40;;
1925;SDS011;964;42.606;23.588;2023-09-30T14:24:13;6.13;;;4.63;;
1925;SDS011;964;42.606;23.588;2023-09-30T14:26:40;11.10;;;5.17;;
1925;SDS011;964;42.606;23.588;2023-09-30T14:29:06;8.77;;;4.80;;
1925;SDS011;964;42.606;23.588;2023-09-30T14:31:33;10.33;;;4.37;;
1925;SDS011;964;42.606;23.588;2023-09-30T14:33:59;4.87;;;4.40;;
1925;SDS011;964;42.606;23.588;2023-09-30T14:36:26;7.37;;;5.43;;
1925;SDS011;964;42.606;23.588;2023-09-30T14:38:53;6.43;;;4.87;;
1925;SDS011;964;42.606;23.588;2023-09-30T14:41:21;10.90;;;5.57;;
1925;SDS011;964;42.606;23.588;2023-09-30T14:43:47;10.00;;;5.00;;
1925;SDS011;964;42.606;23.588;2023-09-30T14:46:14;12.03;;;4.90;;
1925;SDS011;964;42.606;23.588;2023-09-30T14:48:41;6.23;;;4.43;;
1925;SDS011;964;42.606;23.588;2023-09-30T14:51:08;6.20;;;4.70;;
1925;SDS011;964;42.606;23.588;2023-09-30T14:53:35;8.70;;;5.20;;
1925;SDS011;964;42.606;23.588;2023-09-30T14:56:02;5.37;;;4.87;;
1925;SDS011;964;42.606;23.588;2023-09-30T14:58:30;5.77;;;4.70;;
1925;SDS011;964;42.606;23.588;2023-09-30T15:00:56;10.37;;;4.80;;
1925;SDS011;964;42.606;23.588;2023-09-30T15:03:23;6.13;;;4.73;;
1925;SDS011;964;42.606;23.588;2023-09-30T15:05:56;13.50;;;5.57;;
1925;SDS011;964;42.606;23.588;2023-09-30T15:08:24;7.13;;;5.00;;
1925;SDS011;964;42.606;23.588;2023-09-30T15:10:51;5.73;;;4.90;;
1925;SDS011;964;42.606;23.588;2023-09-30T15:13:17;7.50;;;5.33;;
1925;SDS011;964;42.606;23.588;2023-09-30T15:15:45;6.50;;;5.87;;
1925;SDS011;964;42.606;23.588;2023-09-30T15:18:12;7.40;;;5.63;;
1925;SDS011;964;42.606;23.588;2023-09-30T15:20:39;9.70;;;5.53;;
1925;SDS011;964;42.606;23.588;2023-09-30T15:23:06;14.70;;;7.27;;
1925;SDS011;964;42.606;23.588;2023-09-30T15:25:32;9.77;;;6.00;;
1925;SDS011;964;42.606;23.588;2023-09-30T15:27:59;10.83;;;5.37;;
1925;SDS011;964;42.606;23.588;2023-09-30T15:30:25;6.07;;;5.13;;
1925;SDS011;964;42.606;23.588;2023-09-30T15:32:53;8.33;;;5.07;;
1925;SDS011;964;42.606;23.588;2023-09-30T15:35:20;8.83;;;5.70;;
1925;SDS011;964;42.606;23.588;2023-09-30T15:37:47;12.60;;;5.63;;